createdAt,value
2022-12-26T00:00:50.922Z,6.8
2022-12-26T00:02:51.126Z,6.9
2022-12-26T00:04:54.851Z,6.9
2022-12-26T00:06:49.992Z,7.0
2022-12-26T00:08:50.628Z,7.0
2022-12-26T00:10:50.537Z,7.1
2022-12-26T00:12:50.064Z,7.2
2022-12-26T00:14:50.657Z,7.2
2022-12-26T00:16:51.213Z,7.3
2022-12-26T00:18:50.081Z,7.4
2022-12-26T00:20:50.884Z,7.4
2022-12-26T00:22:55.365Z,7.5
2022-12-26T00:24:50.141Z,7.5
2022-12-26T00:26:50.208Z,7.5
2022-12-26T00:28:50.934Z,7.6
2022-12-26T00:30:50.662Z,7.6
2022-12-26T00:32:50.401Z,7.7
2022-12-26T00:34:50.638Z,7.7
2022-12-26T00:36:50.612Z,7.7
2022-12-26T00:38:50.442Z,7.8
2022-12-26T00:40:50.250Z,7.8
2022-12-26T00:42:50.062Z,7.9
2022-12-26T00:44:50.954Z,7.9
2022-12-26T00:46:50.405Z,7.9
2022-12-26T00:48:50.209Z,8.0
2022-12-26T00:50:50.114Z,8.0
2022-12-26T00:52:50.912Z,8.1
2022-12-26T00:54:50.534Z,8.2
2022-12-26T00:56:50.587Z,8.2
2022-12-26T00:58:50.421Z,8.2
2022-12-26T01:00:50.280Z,8.3
2022-12-26T01:02:50.740Z,8.3
2022-12-26T01:04:50.232Z,8.3
2022-12-26T01:06:50.374Z,8.3
2022-12-26T01:08:50.061Z,8.4
2022-12-26T01:10:50.760Z,8.4
2022-12-26T01:12:50.493Z,8.4
2022-12-26T01:16:50.717Z,8.4
2022-12-26T01:18:50.535Z,8.4
2022-12-26T01:20:50.232Z,8.5
2022-12-26T01:22:50.720Z,8.5
2022-12-26T01:24:50.227Z,8.5
2022-12-26T01:26:50.429Z,8.6
2022-12-26T01:28:50.299Z,8.6
2022-12-26T01:30:50.258Z,8.7
2022-12-26T01:32:50.488Z,8.7
2022-12-26T01:34:50.884Z,8.7
2022-12-26T01:36:50.078Z,8.7
2022-12-26T01:38:50.889Z,8.7
2022-12-26T01:40:50.663Z,8.7
2022-12-26T01:42:50.584Z,8.7
2022-12-26T01:44:50.305Z,8.8
2022-12-26T01:46:50.325Z,8.7
2022-12-26T01:48:50.185Z,8.8
2022-12-26T01:50:50.740Z,8.7
2022-12-26T01:52:50.628Z,8.7
2022-12-26T01:54:50.427Z,8.8
2022-12-26T01:56:50.455Z,8.8
2022-12-26T01:58:50.271Z,8.8
2022-12-26T02:00:51.143Z,8.8
2022-12-26T02:02:50.614Z,8.8
2022-12-26T02:04:50.452Z,8.8
2022-12-26T02:06:50.500Z,8.8
2022-12-26T02:08:50.320Z,8.8
2022-12-26T02:10:50.127Z,8.9
2022-12-26T02:12:50.513Z,8.9
2022-12-26T02:14:50.122Z,8.9
2022-12-26T02:16:50.600Z,8.9
2022-12-26T02:18:50.355Z,8.9
2022-12-26T02:20:50.005Z,8.9
2022-12-26T02:22:50.744Z,8.9
2022-12-26T02:24:50.429Z,8.9
2022-12-26T02:26:50.460Z,8.9
2022-12-26T02:28:50.239Z,8.9
2022-12-26T02:30:50.041Z,8.9
2022-12-26T02:32:50.882Z,8.9
2022-12-26T02:34:50.112Z,8.9
2022-12-26T02:36:50.086Z,8.9
2022-12-26T02:38:50.706Z,8.9
2022-12-26T02:40:50.395Z,9.0
2022-12-26T02:42:50.344Z,9.0
2022-12-26T02:44:50.971Z,9.0
2022-12-26T02:46:50.959Z,9.0
2022-12-26T02:48:50.547Z,9.0
2022-12-26T02:50:50.173Z,9.0
2022-12-26T02:52:50.793Z,9.1
2022-12-26T02:54:50.436Z,9.0
2022-12-26T02:56:50.479Z,9.1
2022-12-26T02:58:50.052Z,9.1
2022-12-26T03:00:51.082Z,9.1
2022-12-26T03:02:51.462Z,9.0
2022-12-26T03:04:50.929Z,9.1
2022-12-26T03:06:51.023Z,9.1
2022-12-26T03:08:50.954Z,9.1
2022-12-26T03:10:50.540Z,9.0
2022-12-26T03:12:50.367Z,9.0
2022-12-26T03:14:50.028Z,9.0
2022-12-26T03:16:50.192Z,9.0
2022-12-26T03:19:01.228Z,9.0
2022-12-26T03:20:50.589Z,9.1
2022-12-26T03:22:50.269Z,9.1
2022-12-26T03:24:50.842Z,9.1
2022-12-26T03:26:50.926Z,9.1
2022-12-26T03:28:50.474Z,9.1
2022-12-26T03:30:51.130Z,9.1
2022-12-26T03:32:50.898Z,9.1
2022-12-26T03:34:50.095Z,9.1
2022-12-26T03:36:50.127Z,9.1
2022-12-26T03:38:50.739Z,9.1
2022-12-26T03:40:50.405Z,9.1
2022-12-26T03:42:50.228Z,9.1
2022-12-26T03:44:54.489Z,9.2
2022-12-26T03:46:50.651Z,9.2
2022-12-26T03:48:50.436Z,9.2
2022-12-26T03:50:50.246Z,9.2
2022-12-26T03:52:50.797Z,9.2
2022-12-26T03:54:50.462Z,9.2
2022-12-26T03:56:50.421Z,9.2
2022-12-26T03:58:50.068Z,9.2
2022-12-26T04:00:50.690Z,9.3
2022-12-26T04:02:50.324Z,9.3
2022-12-26T04:04:50.563Z,9.3
2022-12-26T04:06:50.532Z,9.3
2022-12-26T04:08:50.420Z,9.3
2022-12-26T04:10:50.230Z,9.3
2022-12-26T04:12:50.001Z,9.3
2022-12-26T04:14:50.812Z,9.3
2022-12-26T04:16:50.811Z,9.3
2022-12-26T04:18:50.677Z,9.3
2022-12-26T04:20:50.276Z,9.3
2022-12-26T04:22:50.870Z,9.3
2022-12-26T04:24:50.469Z,9.3
2022-12-26T04:26:50.531Z,9.3
2022-12-26T04:28:50.366Z,9.3
2022-12-26T04:30:50.295Z,9.3
2022-12-26T04:32:50.125Z,9.3
2022-12-26T04:34:50.342Z,9.3
2022-12-26T04:36:50.185Z,9.3
2022-12-26T04:38:49.948Z,9.3
2022-12-26T04:40:50.593Z,9.3
2022-12-26T04:42:50.480Z,9.3
2022-12-26T04:44:50.035Z,9.3
2022-12-26T04:46:51.085Z,9.3
2022-12-26T04:48:50.830Z,9.3
2022-12-26T04:50:50.504Z,9.3
2022-12-26T04:52:50.322Z,9.3
2022-12-26T04:54:52.326Z,9.3
2022-12-26T04:56:50.380Z,9.3
2022-12-26T04:58:50.965Z,9.3
2022-12-26T05:00:50.720Z,9.3
2022-12-26T05:02:51.399Z,9.3
2022-12-26T05:04:50.787Z,9.3
2022-12-26T05:06:50.957Z,9.3
2022-12-26T05:08:50.030Z,9.3
2022-12-26T05:10:50.771Z,9.3
2022-12-26T05:12:50.641Z,9.3
2022-12-26T05:14:50.224Z,9.3
2022-12-26T05:16:50.327Z,9.3
2022-12-26T05:18:50.282Z,9.3
2022-12-26T05:20:50.121Z,9.3
2022-12-26T05:22:50.888Z,9.3
2022-12-26T05:24:50.714Z,9.3
2022-12-26T05:26:50.819Z,9.3
2022-12-26T05:28:50.536Z,9.3
2022-12-26T05:30:50.425Z,9.3
2022-12-26T05:32:50.368Z,9.3
2022-12-26T05:34:50.569Z,9.3
2022-12-26T05:36:50.639Z,9.4
2022-12-26T05:38:50.447Z,9.4
2022-12-26T05:40:50.219Z,9.4
2022-12-26T05:42:50.811Z,9.4
2022-12-26T05:44:50.695Z,9.4
2022-12-26T05:46:50.922Z,9.4
2022-12-26T05:48:50.938Z,9.4
2022-12-26T05:50:50.731Z,9.4
2022-12-26T05:52:50.500Z,9.5
2022-12-26T05:54:50.141Z,9.5
2022-12-26T05:56:50.223Z,9.5
2022-12-26T05:58:50.733Z,9.5
2022-12-26T06:00:50.384Z,9.6
2022-12-26T06:02:50.592Z,9.6
2022-12-26T06:04:50.208Z,9.6
2022-12-26T06:06:50.247Z,9.6
2022-12-26T06:08:50.882Z,9.6
2022-12-26T06:10:50.682Z,9.7
2022-12-26T06:12:50.261Z,9.7
2022-12-26T06:14:50.090Z,9.7
2022-12-26T06:16:50.396Z,9.7
2022-12-26T06:18:50.307Z,9.8
2022-12-26T06:20:50.905Z,9.8
2022-12-26T06:22:50.541Z,9.8
2022-12-26T06:24:50.357Z,9.8
2022-12-26T06:26:50.456Z,9.8
2022-12-26T06:28:50.191Z,9.8
2022-12-26T06:30:50.005Z,9.8
2022-12-26T06:32:50.570Z,9.8
2022-12-26T06:34:50.847Z,9.8
2022-12-26T06:36:50.775Z,9.8
2022-12-26T06:38:50.485Z,9.8
2022-12-26T06:40:50.081Z,9.8
2022-12-26T06:42:50.678Z,9.8
2022-12-26T06:44:50.300Z,9.8
2022-12-26T06:46:50.617Z,9.8
2022-12-26T06:48:50.316Z,9.8
2022-12-26T06:50:50.965Z,9.8
2022-12-26T06:52:50.663Z,9.8
2022-12-26T06:54:50.380Z,9.8
2022-12-26T06:56:50.596Z,9.8
2022-12-26T06:58:50.213Z,9.8
2022-12-26T07:00:50.243Z,9.8
2022-12-26T07:02:51.061Z,9.8
2022-12-26T07:04:50.435Z,9.8
2022-12-26T07:06:50.499Z,9.7
2022-12-26T07:08:50.271Z,9.7
2022-12-26T07:10:50.881Z,9.6
2022-12-26T07:12:50.553Z,9.6
2022-12-26T07:14:50.322Z,9.6
2022-12-26T07:16:50.716Z,9.6
2022-12-26T07:18:50.339Z,9.6
2022-12-26T07:20:50.966Z,9.6
2022-12-26T07:22:50.601Z,9.6
2022-12-26T07:24:50.203Z,9.5
2022-12-26T07:26:50.328Z,9.5
2022-12-26T07:28:50.044Z,9.5
2022-12-26T07:30:50.901Z,9.5
2022-12-26T07:32:50.614Z,9.5
2022-12-26T07:34:50.720Z,9.5
2022-12-26T07:36:50.678Z,9.5
2022-12-26T07:38:50.306Z,9.6
2022-12-26T07:40:50.927Z,9.6
2022-12-26T07:42:50.513Z,9.6
2022-12-26T07:44:50.144Z,9.6
2022-12-26T07:46:50.189Z,9.7
2022-12-26T07:48:50.992Z,9.8
2022-12-26T07:50:50.773Z,9.8
2022-12-26T07:52:50.407Z,9.8
2022-12-26T07:54:50.010Z,9.8
2022-12-26T07:56:50.021Z,9.9
2022-12-26T07:58:50.873Z,10.0
2022-12-26T08:00:51.006Z,10.0
2022-12-26T08:02:51.408Z,10.0
2022-12-26T08:04:50.762Z,10.0
2022-12-26T08:06:50.723Z,10.0
2022-12-26T08:08:52.063Z,10.1
2022-12-26T08:10:50.743Z,10.1
2022-12-26T08:12:50.562Z,10.1
2022-12-26T08:14:50.128Z,10.2
2022-12-26T08:16:54.422Z,10.2
2022-12-26T08:18:50.161Z,10.2
2022-12-26T08:20:50.806Z,10.2
2022-12-26T08:22:50.619Z,10.2
2022-12-26T08:24:50.698Z,10.3
2022-12-26T08:26:50.657Z,10.3
2022-12-26T08:28:50.485Z,10.3
2022-12-26T08:30:50.144Z,10.4
2022-12-26T08:32:50.882Z,10.4
2022-12-26T08:34:50.339Z,10.4
2022-12-26T08:36:50.363Z,10.4
2022-12-26T08:38:50.942Z,10.4
2022-12-26T08:40:50.740Z,10.5
2022-12-26T08:43:34.713Z,10.5
2022-12-26T08:44:50.409Z,10.5
2022-12-26T08:46:50.461Z,10.5
2022-12-26T08:48:50.102Z,10.5
2022-12-26T08:50:50.761Z,10.6
2022-12-26T08:52:50.642Z,10.6
2022-12-26T08:54:50.400Z,10.6
2022-12-26T08:56:50.273Z,10.6
2022-12-26T08:58:50.849Z,10.6
2022-12-26T09:00:56.828Z,10.6
2022-12-26T09:02:51.311Z,10.6
2022-12-26T09:04:50.733Z,10.6
2022-12-26T09:06:50.971Z,10.6
2022-12-26T09:08:50.754Z,10.7
2022-12-26T09:10:50.349Z,10.8
2022-12-26T09:12:50.948Z,10.8
2022-12-26T09:14:50.839Z,10.8
2022-12-26T09:16:51.875Z,10.9
2022-12-26T09:18:50.614Z,11.0
2022-12-26T09:20:50.432Z,11.0
2022-12-26T09:22:50.009Z,11.1
2022-12-26T09:24:50.846Z,11.1
2022-12-26T09:26:50.633Z,11.1
2022-12-26T09:28:50.323Z,11.1
2022-12-26T09:30:50.224Z,11.1
2022-12-26T09:32:50.930Z,11.2
2022-12-26T09:34:50.375Z,11.2
2022-12-26T09:36:50.546Z,11.2
2022-12-26T09:38:50.369Z,11.2
2022-12-26T09:40:50.183Z,11.3
2022-12-26T09:42:50.800Z,11.3
2022-12-26T09:44:50.612Z,11.3
2022-12-26T09:46:50.863Z,11.3
2022-12-26T09:48:50.655Z,11.2
2022-12-26T09:50:50.238Z,11.2
2022-12-26T09:52:51.061Z,11.2
2022-12-26T09:54:50.691Z,11.2
2022-12-26T09:57:08.624Z,11.2
2022-12-26T09:58:50.300Z,11.2
2022-12-26T10:00:50.929Z,11.2
2022-12-26T10:02:50.774Z,11.2
2022-12-26T10:04:50.200Z,11.2
2022-12-26T10:06:50.389Z,11.2
2022-12-26T10:08:49.987Z,11.1
2022-12-26T10:10:50.768Z,11.1
2022-12-26T10:12:50.427Z,11.1
2022-12-26T10:14:50.220Z,11.1
2022-12-26T10:16:50.228Z,11.1
2022-12-26T10:18:50.094Z,11.1
2022-12-26T10:20:50.843Z,11.1
2022-12-26T10:22:50.511Z,11.1
2022-12-26T10:24:51.191Z,11.0
2022-12-26T10:26:50.171Z,11.1
2022-12-26T10:28:50.918Z,11.1
2022-12-26T10:30:50.673Z,11.1
2022-12-26T10:32:50.580Z,11.0
2022-12-26T10:34:50.759Z,11.0
2022-12-26T10:36:50.776Z,11.0
2022-12-26T10:38:50.390Z,11.0
2022-12-26T10:40:50.216Z,11.0
2022-12-26T10:42:49.988Z,11.0
2022-12-26T10:44:50.674Z,11.0
2022-12-26T10:46:50.932Z,11.0
2022-12-26T10:48:50.694Z,11.0
2022-12-26T10:50:50.308Z,11.0
2022-12-26T10:52:50.355Z,11.0
2022-12-26T10:54:50.109Z,11.0
2022-12-26T10:56:50.119Z,10.9
2022-12-26T10:58:50.952Z,10.9
2022-12-26T11:00:50.739Z,10.9
2022-12-26T11:02:51.176Z,10.9
2022-12-26T11:05:40.140Z,10.8
2022-12-26T11:06:50.739Z,10.8
2022-12-26T11:08:50.708Z,10.8
2022-12-26T11:10:50.424Z,10.8
2022-12-26T11:12:50.013Z,10.8
2022-12-26T11:14:50.672Z,10.8
2022-12-26T11:16:50.686Z,10.8
2022-12-26T11:18:50.518Z,10.8
2022-12-26T11:20:50.278Z,10.8
2022-12-26T11:22:50.948Z,10.8
2022-12-26T11:24:50.704Z,10.8
2022-12-26T11:26:50.731Z,10.8
2022-12-26T11:28:50.354Z,10.8
2022-12-26T11:30:49.961Z,10.7
2022-12-26T11:32:50.782Z,10.7
2022-12-26T11:34:50.027Z,10.7
2022-12-26T11:36:50.221Z,10.7
2022-12-26T11:38:50.050Z,10.7
2022-12-26T11:40:50.868Z,10.7
2022-12-26T11:42:50.589Z,10.7
2022-12-26T11:44:50.303Z,10.6
2022-12-26T11:46:50.557Z,10.6
2022-12-26T11:48:50.373Z,10.6
2022-12-26T11:50:50.122Z,10.6
2022-12-26T11:52:50.902Z,10.6
2022-12-26T11:54:50.840Z,10.6
2022-12-26T11:56:50.925Z,10.6
2022-12-26T11:58:50.551Z,10.6
2022-12-26T12:00:50.242Z,10.6
2022-12-26T12:02:50.739Z,10.6
2022-12-26T12:04:50.559Z,10.6
2022-12-26T12:06:50.623Z,10.6
2022-12-26T12:08:50.482Z,10.6
2022-12-26T12:10:50.295Z,10.6
2022-12-26T12:12:50.095Z,10.6
2022-12-26T12:14:56.700Z,10.6
2022-12-26T12:16:50.921Z,10.6
2022-12-26T12:18:50.721Z,10.6
2022-12-26T12:20:52.573Z,10.6
2022-12-26T12:22:50.385Z,10.6
2022-12-26T12:24:50.155Z,10.6
2022-12-26T12:27:05.738Z,10.6
2022-12-26T12:28:50.403Z,10.5
2022-12-26T12:30:50.213Z,10.5
2022-12-26T12:32:57.741Z,10.5
2022-12-26T12:34:50.108Z,10.5
2022-12-26T12:36:50.223Z,10.5
2022-12-26T12:38:57.156Z,10.5
2022-12-26T12:40:50.881Z,10.6
2022-12-26T12:42:50.682Z,10.6
2022-12-26T12:44:57.295Z,10.6
2022-12-26T12:46:50.363Z,10.6
2022-12-26T12:48:50.171Z,10.6
2022-12-26T12:50:57.246Z,10.6
2022-12-26T12:52:51.013Z,10.6
2022-12-26T12:54:50.817Z,10.6
2022-12-26T12:56:50.773Z,10.6
2022-12-26T12:58:50.648Z,10.6
2022-12-26T13:00:50.948Z,10.6
2022-12-26T13:02:51.136Z,10.6
2022-12-26T13:04:50.445Z,10.6
2022-12-26T13:06:50.473Z,10.6
2022-12-26T13:08:50.296Z,10.6
2022-12-26T13:10:50.101Z,10.6
2022-12-26T13:12:50.921Z,10.6
2022-12-26T13:14:50.749Z,10.6
2022-12-26T13:16:51.157Z,10.6
2022-12-26T13:18:50.948Z,10.6
2022-12-26T13:20:50.560Z,10.6
2022-12-26T13:22:50.391Z,10.6
2022-12-26T13:24:49.990Z,10.6
2022-12-26T13:26:50.031Z,10.6
2022-12-26T13:28:50.637Z,10.6
2022-12-26T13:30:50.244Z,10.6
2022-12-26T13:32:50.815Z,10.6
2022-12-26T13:34:50.901Z,10.6
2022-12-26T13:36:50.733Z,10.6
2022-12-26T13:38:54.902Z,10.6
2022-12-26T13:40:50.485Z,10.6
2022-12-26T13:42:50.155Z,10.6
2022-12-26T13:44:54.283Z,10.6
2022-12-26T13:46:50.391Z,10.6
2022-12-26T13:48:50.154Z,10.6
2022-12-26T13:50:57.023Z,10.6
2022-12-26T13:52:50.802Z,10.6
2022-12-26T13:54:50.613Z,10.6
2022-12-26T13:56:50.669Z,10.6
2022-12-26T13:58:50.479Z,10.6
2022-12-26T14:00:50.419Z,10.5
2022-12-26T14:03:21.214Z,10.5
2022-12-26T14:04:50.234Z,10.5
2022-12-26T14:06:50.336Z,10.5
2022-12-26T14:08:55.787Z,10.5
2022-12-26T14:10:50.527Z,10.5
2022-12-26T14:12:50.109Z,10.5
2022-12-26T14:14:55.169Z,10.5
2022-12-26T14:16:50.559Z,10.4
2022-12-26T14:18:50.159Z,10.4
2022-12-26T14:20:50.799Z,10.4
2022-12-26T14:22:50.480Z,10.4
2022-12-26T14:24:50.338Z,10.4
2022-12-26T14:26:50.064Z,10.4
2022-12-26T14:28:50.655Z,10.4
2022-12-26T14:30:50.608Z,10.4
2022-12-26T14:32:50.308Z,10.4
2022-12-26T14:34:50.721Z,10.4
2022-12-26T14:36:50.748Z,10.3
2022-12-26T14:38:50.329Z,10.3
2022-12-26T14:40:50.915Z,10.3
2022-12-26T14:42:50.630Z,10.3
2022-12-26T14:44:50.213Z,10.2
2022-12-26T14:46:50.451Z,10.2
2022-12-26T14:48:50.209Z,10.2
2022-12-26T14:50:50.018Z,10.2
2022-12-26T14:52:50.629Z,10.2
2022-12-26T14:54:52.049Z,10.2
2022-12-26T14:56:50.459Z,10.2
2022-12-26T14:58:50.284Z,10.1
2022-12-26T15:00:50.767Z,10.1
2022-12-26T15:02:51.299Z,10.1
2022-12-26T15:04:50.724Z,10.1
2022-12-26T15:06:50.960Z,10.1
2022-12-26T15:08:50.573Z,10.1
2022-12-26T15:10:50.352Z,10.1
2022-12-26T15:12:59.641Z,10.1
2022-12-26T15:14:50.431Z,10.1
2022-12-26T15:16:50.627Z,10.1
2022-12-26T15:18:50.231Z,10.0
2022-12-26T15:20:50.816Z,10.0
2022-12-26T15:22:50.466Z,10.0
2022-12-26T15:25:20.605Z,10.0
2022-12-26T15:26:50.396Z,10.0
2022-12-26T15:28:50.097Z,10.0
2022-12-26T15:30:51.128Z,9.9
2022-12-26T15:32:50.905Z,9.9
2022-12-26T15:34:50.115Z,9.9
2022-12-26T15:36:50.164Z,9.9
2022-12-26T15:38:50.740Z,9.9
2022-12-26T15:40:50.365Z,9.9
2022-12-26T15:42:50.075Z,9.9
2022-12-26T15:44:50.635Z,9.9
2022-12-26T15:46:50.636Z,9.9
2022-12-26T15:48:50.251Z,9.9
2022-12-26T15:50:50.872Z,9.9
2022-12-26T15:52:50.439Z,9.9
2022-12-26T15:54:50.094Z,9.9
2022-12-26T15:56:50.327Z,9.9
2022-12-26T15:58:50.895Z,9.9
2022-12-26T16:00:50.540Z,9.9
2022-12-26T16:02:50.671Z,9.8
2022-12-26T16:04:50.773Z,9.8
2022-12-26T16:06:49.969Z,9.8
2022-12-26T16:08:50.805Z,9.8
2022-12-26T16:10:56.261Z,9.8
2022-12-26T16:12:50.023Z,9.8
2022-12-26T16:14:50.806Z,9.8
2022-12-26T16:16:50.930Z,9.8
2022-12-26T16:18:50.620Z,9.8
2022-12-26T16:20:50.289Z,9.8
2022-12-26T16:22:50.094Z,9.8
2022-12-26T16:24:50.887Z,9.8
2022-12-26T16:26:50.873Z,9.8
2022-12-26T16:28:50.539Z,9.8
2022-12-26T16:30:50.342Z,9.8
2022-12-26T16:32:50.177Z,9.8
2022-12-26T16:34:50.390Z,9.8
2022-12-26T16:36:50.402Z,9.8
2022-12-26T16:38:50.257Z,9.8
2022-12-26T16:40:50.013Z,9.8
2022-12-26T16:42:50.582Z,9.7
2022-12-26T16:44:50.244Z,9.7
2022-12-26T16:46:50.686Z,9.7
2022-12-26T16:48:50.652Z,9.7
2022-12-26T16:50:50.340Z,9.7
2022-12-26T16:52:50.087Z,9.7
2022-12-26T16:54:50.689Z,9.6
2022-12-26T16:56:50.763Z,9.6
2022-12-26T16:58:50.556Z,9.6
2022-12-26T17:00:50.383Z,9.6
2022-12-26T17:02:50.716Z,9.6
2022-12-26T17:04:58.947Z,9.6
2022-12-26T17:06:49.994Z,9.5
2022-12-26T17:08:50.673Z,9.5
2022-12-26T17:10:50.442Z,9.5
2022-12-26T17:12:50.079Z,9.5
2022-12-26T17:14:50.880Z,9.5
2022-12-26T17:16:50.649Z,9.5
2022-12-26T17:18:50.535Z,9.5
2022-12-26T17:20:50.310Z,9.5
2022-12-26T17:22:50.120Z,9.5
2022-12-26T17:24:51.246Z,9.5
2022-12-26T17:26:50.350Z,9.5
2022-12-26T17:28:50.191Z,9.5
2022-12-26T17:30:49.979Z,9.5
2022-12-26T17:32:50.585Z,9.5
2022-12-26T17:34:50.024Z,9.5
2022-12-26T17:37:20.177Z,9.5
2022-12-26T17:38:50.714Z,9.5
2022-12-26T17:40:50.518Z,9.5
2022-12-26T17:42:50.281Z,9.5
2022-12-26T17:44:50.116Z,9.5
2022-12-26T17:46:50.454Z,9.5
2022-12-26T17:48:50.089Z,9.5
2022-12-26T17:50:50.711Z,9.5
2022-12-26T17:52:50.719Z,9.5
2022-12-26T17:54:50.319Z,9.5
2022-12-26T17:56:50.337Z,9.5
2022-12-26T17:58:50.136Z,9.5
2022-12-26T18:00:51.050Z,9.5
2022-12-26T18:02:51.414Z,9.5
2022-12-26T18:04:50.932Z,9.5
2022-12-26T18:06:50.063Z,9.5
2022-12-26T18:08:50.967Z,9.5
2022-12-26T18:10:50.728Z,9.5
2022-12-26T18:12:50.537Z,9.5
2022-12-26T18:14:50.075Z,9.5
2022-12-26T18:16:50.974Z,9.5
2022-12-26T18:18:50.721Z,9.5
2022-12-26T18:20:50.430Z,9.5
2022-12-26T18:22:50.345Z,9.5
2022-12-26T18:24:49.987Z,9.5
2022-12-26T18:26:50.039Z,9.5
2022-12-26T18:28:50.674Z,9.5
2022-12-26T18:30:50.448Z,9.5
2022-12-26T18:32:50.122Z,9.5
2022-12-26T18:34:50.287Z,9.5
2022-12-26T18:36:50.223Z,9.5
2022-12-26T18:38:50.839Z,9.6
2022-12-26T18:40:50.496Z,9.6
2022-12-26T18:42:50.148Z,9.6
2022-12-26T18:44:50.919Z,9.6
2022-12-26T18:46:50.716Z,9.6
2022-12-26T18:48:50.826Z,9.6
2022-12-26T18:50:50.678Z,9.6
2022-12-26T18:52:54.613Z,9.6
2022-12-26T18:54:50.242Z,9.6
2022-12-26T18:56:50.173Z,9.6
2022-12-26T18:58:58.641Z,9.3
2022-12-26T19:00:50.355Z,9.1
2022-12-26T19:02:50.057Z,8.7
2022-12-26T19:04:50.053Z,8.7
2022-12-26T19:06:50.092Z,8.5
2022-12-26T19:08:50.707Z,8.4
2022-12-26T19:10:50.523Z,8.2
2022-12-26T19:12:50.173Z,8.2
2022-12-26T19:14:50.852Z,8.0
2022-12-26T19:16:51.128Z,7.9
2022-12-26T19:18:50.953Z,7.8
2022-12-26T19:20:50.699Z,7.8
2022-12-26T19:22:50.459Z,7.8
2022-12-26T19:24:50.342Z,7.7
2022-12-26T19:26:50.244Z,7.6
2022-12-26T19:28:50.835Z,7.6
2022-12-26T19:30:50.455Z,7.6
2022-12-26T19:32:50.053Z,7.6
2022-12-26T19:34:50.353Z,7.6
2022-12-26T19:36:50.286Z,7.5
2022-12-26T19:38:50.924Z,7.5
2022-12-26T19:40:50.505Z,7.5
2022-12-26T19:42:50.176Z,7.5
2022-12-26T19:44:50.716Z,7.5
2022-12-26T19:47:13.071Z,7.5
2022-12-26T19:48:50.309Z,7.5
2022-12-26T19:50:50.066Z,7.5
2022-12-26T19:52:50.826Z,7.5
2022-12-26T19:54:50.617Z,7.5
2022-12-26T19:56:50.789Z,7.5
2022-12-26T19:58:57.438Z,7.5
2022-12-26T20:00:50.583Z,7.6
2022-12-26T20:02:50.795Z,7.6
2022-12-26T20:04:50.411Z,7.6
2022-12-26T20:06:50.405Z,7.6
2022-12-26T20:08:50.117Z,7.6
2022-12-26T20:10:50.052Z,7.7
2022-12-26T20:12:50.747Z,7.8
2022-12-26T20:14:50.623Z,7.8
2022-12-26T20:17:08.176Z,7.8
2022-12-26T20:18:49.986Z,7.8
2022-12-26T20:20:50.680Z,7.8
2022-12-26T20:22:53.813Z,7.7
2022-12-26T20:24:50.514Z,7.7
2022-12-26T20:26:50.664Z,7.7
2022-12-26T20:28:50.416Z,7.6
2022-12-26T20:30:50.268Z,7.6
2022-12-26T20:32:50.911Z,7.6
2022-12-26T20:34:50.234Z,7.6
2022-12-26T20:36:50.380Z,7.5
2022-12-26T20:38:50.125Z,7.5
2022-12-26T20:40:50.887Z,7.5
2022-12-26T20:42:50.600Z,7.5
2022-12-26T20:44:50.188Z,7.4
2022-12-26T20:46:50.255Z,7.4
2022-12-26T20:48:50.804Z,7.4
2022-12-26T20:50:50.405Z,7.4
2022-12-26T20:52:50.047Z,7.4
2022-12-26T20:54:50.735Z,7.4
2022-12-26T20:56:50.895Z,7.4
2022-12-26T20:58:50.460Z,7.4
2022-12-26T21:00:50.225Z,7.4
2022-12-26T21:02:51.711Z,7.4
2022-12-26T21:04:50.346Z,7.4
2022-12-26T21:06:50.783Z,7.4
2022-12-26T21:08:50.453Z,7.4
2022-12-26T21:10:50.996Z,7.4
2022-12-26T21:12:50.555Z,7.4
2022-12-26T21:14:50.320Z,7.4
2022-12-26T21:16:50.267Z,7.4
2022-12-26T21:18:49.991Z,7.4
2022-12-26T21:20:50.616Z,7.4
2022-12-26T21:22:50.305Z,7.4
2022-12-26T21:24:50.869Z,7.5
2022-12-26T21:26:50.875Z,7.5
2022-12-26T21:28:50.641Z,7.5
2022-12-26T21:30:50.881Z,7.4
2022-12-26T21:32:50.512Z,7.5
2022-12-26T21:34:50.796Z,7.5
2022-12-26T21:36:50.867Z,7.5
2022-12-26T21:38:50.705Z,7.5
2022-12-26T21:40:50.504Z,7.4
2022-12-26T21:42:50.271Z,7.4
2022-12-26T21:44:50.804Z,7.4
2022-12-26T21:46:51.057Z,7.4
2022-12-26T21:48:50.842Z,7.4
2022-12-26T21:50:50.448Z,7.4
2022-12-26T21:52:50.146Z,7.4
2022-12-26T21:54:50.899Z,7.4
2022-12-26T21:56:50.901Z,7.4
2022-12-26T21:58:50.739Z,7.4
2022-12-26T22:00:50.590Z,7.4
2022-12-26T22:02:51.117Z,7.4
2022-12-26T22:04:50.403Z,7.4
2022-12-26T22:06:50.362Z,7.4
2022-12-26T22:08:49.984Z,7.4
2022-12-26T22:10:50.593Z,7.4
2022-12-26T22:12:50.448Z,7.4
2022-12-26T22:14:50.008Z,7.4
2022-12-26T22:16:50.042Z,7.4
2022-12-26T22:18:50.695Z,7.3
2022-12-26T22:20:50.325Z,7.3
2022-12-26T22:22:50.117Z,7.3
2022-12-26T22:24:50.883Z,7.3
2022-12-26T22:26:50.695Z,7.3
2022-12-26T22:28:50.351Z,7.2
2022-12-26T22:30:50.362Z,7.3
2022-12-26T22:32:50.167Z,7.3
2022-12-26T22:34:50.155Z,7.2
2022-12-26T22:36:50.218Z,7.2
2022-12-26T22:38:50.088Z,7.2
2022-12-26T22:40:50.822Z,7.2
2022-12-26T22:42:50.690Z,7.2
2022-12-26T22:44:50.435Z,7.3
2022-12-26T22:46:50.760Z,7.3
2022-12-26T22:48:50.482Z,7.3
2022-12-26T22:50:50.111Z,7.2
2022-12-26T22:52:50.722Z,7.2
2022-12-26T22:54:50.583Z,7.2
2022-12-26T22:56:50.735Z,7.1
2022-12-26T22:58:50.397Z,7.1
2022-12-26T23:00:50.208Z,7.1
2022-12-26T23:02:50.472Z,7.1
2022-12-26T23:04:50.823Z,7.1
2022-12-26T23:06:50.793Z,7.1
2022-12-26T23:08:50.467Z,7.1
2022-12-26T23:10:50.021Z,7.0
2022-12-26T23:12:50.836Z,7.0
2022-12-26T23:14:50.441Z,6.9
2022-12-26T23:16:50.505Z,6.9
2022-12-26T23:18:50.111Z,6.9
2022-12-26T23:20:50.911Z,6.8
2022-12-26T23:22:50.523Z,6.8
2022-12-26T23:24:50.161Z,6.7
2022-12-26T23:26:50.212Z,6.7
2022-12-26T23:28:50.945Z,6.7
2022-12-26T23:30:50.447Z,6.6
2022-12-26T23:32:50.207Z,6.5
2022-12-26T23:34:50.192Z,6.4
2022-12-26T23:36:50.228Z,6.4
2022-12-26T23:38:50.916Z,6.3
2022-12-26T23:40:50.675Z,6.3
2022-12-26T23:42:50.319Z,6.2
2022-12-26T23:44:50.101Z,6.2
2022-12-26T23:46:50.850Z,6.2
2022-12-26T23:48:50.718Z,6.1
2022-12-26T23:50:50.328Z,6.0
2022-12-26T23:52:50.959Z,6.0
2022-12-26T23:54:50.541Z,5.9
2022-12-26T23:56:50.590Z,5.9
2022-12-26T23:58:50.398Z,5.8
